Time;durP1;ratioP1;P1;durP2;ratioP2;P2;SDS_P1;SDS_P2;PMS_P1;PMS_P2;Temp;Humidity;BMP_temperature;BMP_pressure;BME280_temperature;BME280_humidity;BME280_pressure;Samples;Min_cycle;Max_cycle;Signal;HPM_P1;HPM_P2
2022/03/16 00:02:21;;;;;;;17.50;11.70;;;;;;;3.37;76.57;102377.63;4993132;28;20405;-91
2022/03/16 00:04:51;;;;;;;19.40;11.70;;;;;;;3.35;74.80;102380.19;4987445;28;20030;-92
2022/03/16 00:07:17;;;;;;;19.57;12.43;;;;;;;3.24;74.48;102386.72;5001090;28;20469;-90
2022/03/16 00:09:44;;;;;;;19.97;10.93;;;;;;;3.18;74.18;102385.69;4986687;28;20030;-91
2022/03/16 00:12:09;;;;;;;18.03;10.93;;;;;;;3.15;74.75;102377.88;4986190;28;20037;-91
2022/03/16 00:14:36;;;;;;;20.07;11.43;;;;;;;3.12;75.04;102382.06;4987121;28;20022;-91
2022/03/16 00:17:02;;;;;;;18.80;11.40;;;;;;;3.07;75.10;102387.09;4986615;28;20022;-92
2022/03/16 00:19:27;;;;;;;19.10;11.60;;;;;;;3.04;75.78;102379.28;4987222;28;20032;-92
2022/03/16 00:21:52;;;;;;;21.37;11.33;;;;;;;3.01;76.18;102380.03;4992479;28;20034;-91
2022/03/16 00:24:18;;;;;;;18.53;11.63;;;;;;;3.02;76.62;102378.34;4993950;28;20088;-92
2022/03/16 00:26:43;;;;;;;14.87;9.97;;;;;;;2.96;74.96;102375.59;4986152;28;20030;-91
2022/03/16 00:29:08;;;;;;;17.03;11.27;;;;;;;2.94;75.81;102383.25;4982254;28;20030;-91
2022/03/16 00:31:34;;;;;;;19.20;11.37;;;;;;;2.94;76.52;102383.25;4985730;28;20459;-91
2022/03/16 00:34:00;;;;;;;19.87;11.10;;;;;;;2.91;75.70;102383.16;4992065;28;20036;-91
2022/03/16 00:36:25;;;;;;;18.50;11.77;;;;;;;2.85;73.48;102376.13;4987910;28;20038;-92
2022/03/16 00:38:50;;;;;;;18.30;11.73;;;;;;;2.81;73.78;102376.00;4962131;28;20113;-90
2022/03/16 00:41:16;;;;;;;18.67;11.33;;;;;;;2.76;74.23;102374.97;4977238;28;20106;-91
2022/03/16 00:43:42;;;;;;;19.50;11.80;;;;;;;2.71;74.70;102385.97;4963042;28;20150;-91
2022/03/16 00:46:07;;;;;;;19.67;11.90;;;;;;;2.70;75.03;102383.38;4975976;28;20081;-90
2022/03/16 00:48:33;;;;;;;21.47;12.03;;;;;;;2.68;76.10;102385.00;4962244;28;20042;-91
2022/03/16 00:50:58;;;;;;;20.10;11.97;;;;;;;2.65;75.69;102387.47;4974008;28;20030;-91
2022/03/16 00:53:23;;;;;;;20.63;11.63;;;;;;;2.64;75.13;102385.72;4978165;28;20040;-91
2022/03/16 00:55:49;;;;;;;21.37;11.73;;;;;;;2.63;75.06;102383.97;4961654;28;20569;-92
2022/03/16 00:58:15;;;;;;;18.93;11.70;;;;;;;2.63;75.25;102387.44;4957839;28;20038;-91
2022/03/16 01:00:42;;;;;;;19.10;11.73;;;;;;;2.67;75.90;102390.97;4978284;28;20418;-90
2022/03/16 01:03:07;;;;;;;19.87;12.10;;;;;;;2.65;76.14;102382.34;4961594;28;20059;-91
2022/03/16 01:05:32;;;;;;;18.10;11.33;;;;;;;2.62;75.16;102383.13;4960036;28;20035;-90
2022/03/16 01:07:58;;;;;;;18.17;11.27;;;;;;;2.58;74.82;102374.41;4958193;28;20031;-91
2022/03/16 01:10:23;;;;;;;19.13;11.53;;;;;;;2.56;74.29;102372.63;4964034;28;20461;-91
2022/03/16 01:12:48;;;;;;;19.53;11.83;;;;;;;2.53;74.66;102376.00;4976148;28;20081;-91
2022/03/16 01:15:15;;;;;;;18.83;11.33;;;;;;;2.52;74.47;102375.91;4974664;28;20027;-90
2022/03/16 01:17:40;;;;;;;18.90;11.57;;;;;;;2.49;74.75;102379.28;4979493;28;20023;-91
2022/03/16 01:20:06;;;;;;;19.73;11.90;;;;;;;2.48;75.31;102372.38;4960799;28;20089;-92
2022/03/16 01:22:31;;;;;;;22.57;13.23;;;;;;;2.51;75.96;102375.06;4961079;28;20033;-90
2022/03/16 01:24:57;;;;;;;24.13;13.53;;;;;;;2.53;76.23;102359.69;4974128;28;20038;-91
2022/03/16 01:27:22;;;;;;;24.33;14.07;;;;;;;2.49;76.59;102362.97;4957209;28;20046;-91
2022/03/16 01:29:48;;;;;;;23.33;13.50;;;;;;;2.45;76.60;102367.16;4980271;28;20470;-91
2022/03/16 01:32:13;;;;;;;22.13;13.50;;;;;;;2.46;76.44;102358.63;4992183;28;20061;-91
2022/03/16 01:34:38;;;;;;;24.03;13.30;;;;;;;2.45;77.33;102356.88;4986815;28;20030;-92
2022/03/16 01:37:04;;;;;;;21.73;13.27;;;;;;;2.47;78.12;102360.38;4973574;28;20047;-92
2022/03/16 01:39:30;;;;;;;23.10;13.77;;;;;;;2.47;78.29;102360.38;4985290;28;20381;-90
2022/03/16 01:41:55;;;;;;;21.17;13.20;;;;;;;2.49;78.13;102353.59;4986630;28;20034;-91
2022/03/16 01:44:54;;;;;;;25.03;13.70;;;;;;;2.54;77.31;102346.91;4983384;28;20121;-91
2022/03/16 01:47:21;;;;;;;22.37;13.40;;;;;;;2.55;78.68;102346.09;4948973;28;20438;-90
2022/03/16 01:49:47;;;;;;;25.07;13.83;;;;;;;2.60;78.80;102345.34;4983470;28;20023;-90
2022/03/16 01:52:18;;;;;;;22.83;14.13;;;;;;;2.63;79.05;102345.44;4982599;28;20169;-90
2022/03/16 01:54:43;;;;;;;23.43;14.10;;;;;;;2.67;79.06;102345.56;4980172;28;20065;-91
2022/03/16 01:57:10;;;;;;;23.73;14.43;;;;;;;2.70;79.34;102342.25;4984122;28;20022;-91
2022/03/16 01:59:36;;;;;;;25.07;14.00;;;;;;;2.75;79.41;102338.09;4985312;28;20073;-90
2022/03/16 02:02:03;;;;;;;23.50;14.30;;;;;;;2.78;79.71;102330.50;4988675;28;20084;-91
2022/03/16 02:04:29;;;;;;;24.23;14.47;;;;;;;2.83;80.39;102328.94;4985120;28;20378;-91
2022/03/16 02:06:55;;;;;;;27.87;15.77;;;;;;;2.88;81.27;102326.50;4984503;28;20019;-91
2022/03/16 02:09:21;;;;;;;25.73;15.83;;;;;;;2.93;81.65;102327.53;4985124;28;20117;-91
2022/03/16 02:11:47;;;;;;;26.07;15.50;;;;;;;2.96;80.83;102319.91;4989815;28;20547;-91
2022/03/16 02:14:12;;;;;;;26.47;15.90;;;;;;;2.97;80.74;102315.63;4989961;28;20101;-91
2022/03/16 02:16:38;;;;;;;23.73;15.10;;;;;;;2.97;80.74;102316.50;4984710;28;20073;-90
2022/03/16 02:19:03;;;;;;;25.77;15.20;;;;;;;2.99;80.94;102313.97;4985119;28;20132;-91
2022/03/16 02:21:30;;;;;;;26.17;15.87;;;;;;;3.00;80.59;102320.88;4982919;28;20500;-90
2022/03/16 02:23:56;;;;;;;27.63;15.43;;;;;;;2.99;81.30;102309.69;4984348;28;20034;-90
2022/03/16 02:26:25;;;;;;;24.83;16.17;;;;;;;3.00;81.50;102308.00;4990000;28;20041;-91
2022/03/16 02:28:51;;;;;;;28.33;15.27;;;;;;;3.00;81.23;102310.59;4985633;28;20489;-91
2022/03/16 02:31:17;;;;;;;28.90;16.17;;;;;;;2.99;81.24;102312.25;4981771;28;20022;-91
2022/03/16 02:33:43;;;;;;;24.30;14.80;;;;;;;2.99;80.80;102301.97;4980559;28;20046;-92
2022/03/16 02:36:09;;;;;;;21.47;14.30;;;;;;;2.99;81.18;102298.56;4988874;28;20027;-91
2022/03/16 02:38:34;;;;;;;24.67;14.97;;;;;;;3.00;80.92;102297.72;4984337;28;20046;-91
2022/03/16 02:41:00;;;;;;;25.20;15.00;;;;;;;3.02;81.09;102301.22;4988785;28;20192;-91
2022/03/16 02:43:25;;;;;;;25.67;15.37;;;;;;;3.02;80.83;102303.78;4988620;28;20030;-90
2022/03/16 02:45:50;;;;;;;24.03;15.53;;;;;;;3.01;81.46;102295.19;4989330;28;20030;-91
2022/03/16 02:48:16;;;;;;;23.63;14.67;;;;;;;3.01;81.29;102297.75;4992352;28;20026;-91
2022/03/16 02:50:41;;;;;;;23.77;14.43;;;;;;;3.03;80.94;102302.97;4991902;28;20041;-90
2022/03/16 02:53:06;;;;;;;23.70;14.27;;;;;;;3.03;80.81;102305.53;4987293;28;20032;-92
2022/03/16 02:55:32;;;;;;;25.30;14.67;;;;;;;3.03;81.05;102305.53;4983762;28;20126;-91
2022/03/16 02:57:57;;;;;;;22.77;14.27;;;;;;;3.04;80.74;102312.44;4990560;28;20084;-92
2022/03/16 03:00:26;;;;;;;24.73;15.17;;;;;;;3.02;80.64;102304.66;4988430;28;20034;-91
2022/03/16 03:02:52;;;;;;;21.87;13.73;;;;;;;3.01;80.17;102302.03;4983138;28;20033;-91
2022/03/16 03:05:17;;;;;;;21.90;14.70;;;;;;;2.98;80.46;102296.81;4991103;28;20022;-91
2022/03/16 03:07:42;;;;;;;24.23;14.90;;;;;;;2.96;80.22;102301.03;4990189;28;20019;-90
2022/03/16 03:10:08;;;;;;;24.37;14.67;;;;;;;2.93;80.29;102298.34;4993590;28;20026;-91
2022/03/16 03:12:35;;;;;;;23.63;13.70;;;;;;;2.91;80.52;102300.00;4986432;28;20038;-91
2022/03/16 03:15:01;;;;;;;23.63;14.87;;;;;;;2.90;80.61;102306.00;4987789;28;20046;-90
2022/03/16 03:17:26;;;;;;;24.33;14.83;;;;;;;2.88;80.10;102300.81;4987798;28;20095;-91
2022/03/16 03:19:52;;;;;;;24.10;14.97;;;;;;;2.86;80.39;102299.88;4991226;28;20030;-91
2022/03/16 03:22:17;;;;;;;25.30;15.27;;;;;;;2.86;80.97;102294.75;4987931;28;20026;-91
2022/03/16 03:24:44;;;;;;;23.47;14.50;;;;;;;2.86;80.99;102298.19;4991175;28;20394;-91
2022/03/16 03:27:10;;;;;;;24.07;15.20;;;;;;;2.84;81.09;102294.72;4988352;28;20064;-91
2022/03/16 03:29:35;;;;;;;24.37;15.00;;;;;;;2.82;81.25;102296.34;4986730;28;20026;-91
2022/03/16 03:32:01;;;;;;;24.13;14.53;;;;;;;2.81;80.95;102289.47;4985450;28;20042;-91
2022/03/16 03:34:26;;;;;;;22.97;14.87;;;;;;;2.82;81.04;102298.06;4987152;28;20026;-91
2022/03/16 03:36:51;;;;;;;24.07;14.90;;;;;;;2.82;80.54;102306.63;4990757;28;20245;-90
2022/03/16 03:39:16;;;;;;;24.77;15.30;;;;;;;2.82;80.63;102311.78;4988927;28;20030;-91
2022/03/16 03:41:43;;;;;;;24.13;14.67;;;;;;;2.80;81.03;102308.28;4988574;28;20030;-90
2022/03/16 03:44:08;;;;;;;24.70;15.77;;;;;;;2.79;80.31;102316.81;4986365;28;20056;-92
2022/03/16 03:46:33;;;;;;;25.43;15.13;;;;;;;2.79;80.28;102310.81;4986318;28;20495;-91
2022/03/16 03:48:58;;;;;;;25.33;15.27;;;;;;;2.77;80.53;102303.03;4992479;28;20026;-90
2022/03/16 03:51:24;;;;;;;23.80;15.03;;;;;;;2.76;80.39;102309.00;4986535;28;20027;-90
2022/03/16 03:53:49;;;;;;;25.53;15.77;;;;;;;2.75;80.34;102306.41;4987012;28;20029;-91
2022/03/16 03:56:15;;;;;;;24.10;15.23;;;;;;;2.73;80.39;102303.81;4986620;28;20411;-92
2022/03/16 03:58:40;;;;;;;26.17;15.47;;;;;;;2.73;80.55;102301.22;4992806;28;20018;-91
2022/03/16 04:01:06;;;;;;;25.47;15.10;;;;;;;2.75;80.79;102308.97;4992127;28;20034;-91
2022/03/16 04:03:31;;;;;;;24.60;15.10;;;;;;;2.76;80.50;102305.59;4989113;28;20058;-92
2022/03/16 04:05:57;;;;;;;28.47;16.17;;;;;;;2.74;80.97;102305.53;4992818;28;20034;-91
2022/03/16 04:08:22;;;;;;;25.50;15.87;;;;;;;2.75;81.20;102314.97;4982839;28;20106;-91
2022/03/16 04:10:47;;;;;;;24.37;15.47;;;;;;;2.75;80.79;102306.41;5003698;28;20038;-92
2022/03/16 04:13:13;;;;;;;26.50;15.90;;;;;;;2.73;80.94;102306.38;5000919;28;20030;-91
2022/03/16 04:15:38;;;;;;;25.97;16.30;;;;;;;2.73;81.12;102304.66;4993839;28;20042;-91
2022/03/16 04:18:03;;;;;;;25.50;16.13;;;;;;;2.73;81.02;102311.50;4993035;28;20122;-91
2022/03/16 04:20:29;;;;;;;24.90;15.80;;;;;;;2.73;80.91;102307.22;4991495;28;20113;-91
2022/03/16 04:22:54;;;;;;;25.37;16.07;;;;;;;2.72;80.86;102307.19;4985946;28;20382;-91
2022/03/16 04:25:19;;;;;;;26.90;16.63;;;;;;;2.71;80.54;102305.44;4986739;28;20129;-92
2022/03/16 04:27:45;;;;;;;24.70;16.03;;;;;;;2.69;80.53;102309.66;4982999;28;20019;-91
2022/03/16 04:30:11;;;;;;;25.50;15.50;;;;;;;2.69;80.51;102307.09;4988169;28;20029;-91
2022/03/16 04:32:36;;;;;;;26.77;16.13;;;;;;;2.67;80.48;102316.44;4988737;28;20065;-91
2022/03/16 04:35:01;;;;;;;27.60;17.43;;;;;;;2.66;80.32;102309.56;4991032;28;20080;-91
2022/03/16 04:37:28;;;;;;;28.13;16.77;;;;;;;2.62;80.51;102306.03;4991496;28;20082;-91
2022/03/16 04:39:53;;;;;;;26.77;16.43;;;;;;;2.58;80.37;102306.75;4987095;28;20018;-91
2022/03/16 04:42:18;;;;;;;26.50;15.97;;;;;;;2.62;81.17;102312.84;4986257;28;20026;-92
2022/03/16 04:44:44;;;;;;;27.70;16.90;;;;;;;2.61;81.00;102306.88;4985919;28;20034;-91
2022/03/16 04:47:09;;;;;;;25.13;16.13;;;;;;;2.62;81.08;102300.91;4992475;28;20438;-90
2022/03/16 04:49:34;;;;;;;26.50;16.37;;;;;;;2.63;81.41;102306.91;4989438;28;20030;-90
2022/03/16 04:52:00;;;;;;;27.30;16.80;;;;;;;2.63;81.81;102296.63;4984933;28;20168;-91
2022/03/16 04:54:25;;;;;;;27.50;15.97;;;;;;;2.58;81.87;102297.34;4989505;28;20485;-91
2022/03/16 04:56:50;;;;;;;27.03;17.20;;;;;;;2.59;81.76;102298.22;4990275;28;20496;-91
2022/03/16 04:59:17;;;;;;;28.07;16.67;;;;;;;2.58;81.51;102299.06;4982540;28;20026;-90
2022/03/16 05:01:42;;;;;;;29.73;17.90;;;;;;;2.56;81.64;102293.84;4985164;28;20393;-92
2022/03/16 05:04:07;;;;;;;26.20;16.07;;;;;;;2.57;82.10;102294.75;4991990;28;20113;-91
2022/03/16 05:06:33;;;;;;;31.60;17.57;;;;;;;2.56;82.18;102291.28;4989831;28;20035;-90
2022/03/16 05:08:58;;;;;;;28.87;16.47;;;;;;;2.57;82.27;102289.59;4986501;28;20031;-90
2022/03/16 05:11:23;;;;;;;29.90;16.90;;;;;;;2.57;82.30;102290.47;4980755;28;20026;-90
2022/03/16 05:13:49;;;;;;;29.60;17.30;;;;;;;2.56;81.76;102286.13;4990028;28;20445;-90
2022/03/16 05:16:16;;;;;;;28.03;16.90;;;;;;;2.56;82.15;102288.72;4987994;28;20026;-91
2022/03/16 05:18:44;;;;;;;27.63;16.97;;;;;;;2.57;82.06;102289.59;4986152;28;20317;-91
2022/03/16 05:21:09;;;;;;;29.47;18.10;;;;;;;2.56;81.82;102293.84;4989528;28;20034;-90
2022/03/16 05:23:36;;;;;;;28.00;16.10;;;;;;;2.54;82.01;102310.94;4986440;28;20022;-91
2022/03/16 05:26:01;;;;;;;28.27;16.97;;;;;;;2.54;82.13;102305.81;4987830;28;20042;-91
2022/03/16 05:28:27;;;;;;;28.93;16.53;;;;;;;2.54;81.94;102297.22;4988109;28;20065;-91
2022/03/16 05:30:52;;;;;;;30.93;17.70;;;;;;;2.53;81.85;102298.03;4986979;28;20393;-91
2022/03/16 05:33:17;;;;;;;29.57;17.43;;;;;;;2.55;82.24;102298.94;4987161;28;20030;-92
2022/03/16 05:35:44;;;;;;;27.73;16.70;;;;;;;2.54;82.30;102297.22;4986212;28;20030;-91
2022/03/16 05:38:12;;;;;;;28.03;15.87;;;;;;;2.52;82.28;102286.00;4987949;28;20066;-91
2022/03/16 05:40:38;;;;;;;24.47;15.17;;;;;;;2.51;82.19;102289.41;4984392;28;20125;-92
2022/03/16 05:43:04;;;;;;;26.13;15.27;;;;;;;2.52;82.39;102286.00;4983083;28;20026;-91
2022/03/16 05:45:32;;;;;;;25.57;14.30;;;;;;;2.54;82.14;102289.50;4988501;28;20022;-92
2022/03/16 05:47:58;;;;;;;26.23;14.20;;;;;;;2.54;82.61;102289.50;4987039;28;20113;-91
2022/03/16 05:50:28;;;;;;;24.60;13.53;;;;;;;2.56;82.61;102283.56;4997745;28;20045;-92
2022/03/16 05:52:54;;;;;;;22.97;13.57;;;;;;;2.58;82.93;102287.06;5002613;28;20124;-92
2022/03/16 05:55:19;;;;;;;25.13;13.80;;;;;;;2.60;82.80;102288.81;4987399;28;20501;-91
2022/03/16 05:57:44;;;;;;;25.73;13.17;;;;;;;2.63;82.69;102294.06;4985542;28;20371;-91
2022/03/16 06:00:14;;;;;;;23.10;12.37;;;;;;;2.66;83.04;102296.72;4987775;28;20030;-91
2022/03/16 06:02:40;;;;;;;20.47;12.43;;;;;;;2.69;83.23;102289.97;4988790;28;20084;-91
2022/03/16 06:05:06;;;;;;;22.60;12.60;;;;;;;2.71;83.28;102298.59;4989382;28;20381;-91
2022/03/16 06:07:31;;;;;;;19.83;12.13;;;;;;;2.75;83.42;102299.56;4992280;28;20034;-92
2022/03/16 06:09:57;;;;;;;21.13;12.50;;;;;;;2.79;82.96;102293.69;4991879;28;20031;-92
2022/03/16 06:12:22;;;;;;;19.73;11.33;;;;;;;2.83;83.46;102303.25;4981626;28;20026;-91
2022/03/16 06:14:47;;;;;;;19.70;11.13;;;;;;;2.88;83.47;102305.94;4985149;28;20474;-92
2022/03/16 06:17:12;;;;;;;18.73;11.67;;;;;;;2.92;83.22;102301.75;4990354;28;20544;-91
2022/03/16 06:19:38;;;;;;;17.17;10.03;;;;;;;2.97;82.99;102305.34;4988679;28;20034;-91
2022/03/16 06:22:03;;;;;;;19.90;10.27;;;;;;;3.02;83.28;102308.94;4992194;28;20022;-91
2022/03/16 06:24:28;;;;;;;16.10;9.93;;;;;;;3.08;82.81;102309.09;4986993;28;20030;-89
2022/03/16 06:26:54;;;;;;;17.83;10.57;;;;;;;3.14;83.06;102306.72;4986969;28;20030;-92
2022/03/16 06:29:19;;;;;;;16.37;9.97;;;;;;;3.19;83.52;102307.72;4985020;28;20121;-91
2022/03/16 06:31:45;;;;;;;16.33;9.63;;;;;;;3.25;83.49;102316.41;4992212;28;20030;-93
2022/03/16 06:34:10;;;;;;;17.00;9.73;;;;;;;3.29;83.23;102313.09;4990118;28;20089;-92
2022/03/16 06:36:35;;;;;;;15.33;9.37;;;;;;;3.36;83.12;102315.03;4989571;28;20131;-92
2022/03/16 06:39:01;;;;;;;16.10;9.30;;;;;;;3.43;82.72;102309.22;4984706;28;20050;-93
2022/03/16 06:41:26;;;;;;;16.40;9.27;;;;;;;3.49;82.76;102301.69;4985600;28;20037;-92
2022/03/16 06:43:51;;;;;;;15.83;9.23;;;;;;;3.55;82.82;102306.13;4989823;28;20061;-93
2022/03/16 06:46:17;;;;;;;16.17;9.57;;;;;;;3.61;82.80;102310.56;4991235;28;20030;-92
2022/03/16 06:48:42;;;;;;;17.97;9.47;;;;;;;3.69;82.62;102311.66;4988304;28;20546;-94
2022/03/16 06:51:07;;;;;;;19.07;9.37;;;;;;;3.72;82.99;102306.59;4975134;28;20043;-92
2022/03/16 06:53:33;;;;;;;16.63;9.60;;;;;;;3.76;83.11;102304.94;4992308;28;20030;-92
2022/03/16 06:55:58;;;;;;;14.70;8.53;;;;;;;3.82;82.63;102299.97;4981200;28;20089;-92
2022/03/16 06:58:24;;;;;;;15.53;9.13;;;;;;;3.88;82.41;102300.13;4976674;28;20041;-92
2022/03/16 07:00:50;;;;;;;17.37;9.40;;;;;;;3.95;82.73;102290.84;4986641;28;20062;-92
2022/03/16 07:03:15;;;;;;;16.03;9.40;;;;;;;4.02;82.68;102297.91;4992232;28;20037;-93
2022/03/16 07:05:42;;;;;;;16.43;8.90;;;;;;;4.09;82.93;102286.03;4975598;28;20026;-92
2022/03/16 07:08:12;;;;;;;13.77;8.47;;;;;;;4.16;83.07;102282.78;4979758;28;20037;-92
2022/03/16 07:10:40;;;;;;;14.97;8.83;;;;;;;4.23;82.42;102278.66;5006795;28;20022;-92
2022/03/16 07:13:11;;;;;;;15.80;9.20;;;;;;;4.33;82.15;102282.31;4985508;28;20069;-92
2022/03/16 07:15:38;;;;;;;15.73;9.57;;;;;;;4.39;82.08;102280.75;4975829;28;20566;-93
2022/03/16 07:18:03;;;;;;;14.43;8.77;;;;;;;4.47;81.82;102280.03;4974242;28;20105;-92
2022/03/16 07:20:29;;;;;;;18.13;9.43;;;;;;;4.56;81.62;102272.53;4973781;28;20114;-93
2022/03/16 07:23:14;;;;;;;15.48;9.27;;;;;;;4.64;81.27;102267.56;4975330;28;20480;-92
2022/03/16 07:25:46;;;;;;;14.68;8.50;;;;;;;4.69;81.22;102261.66;4990916;28;20060;-92
2022/03/16 07:28:12;;;;;;;15.07;9.07;;;;;;;4.78;80.74;102260.13;4985386;28;20027;-91
2022/03/16 07:30:38;;;;;;;15.25;9.18;;;;;;;4.85;81.01;102259.41;4995551;28;20030;-91
2022/03/16 07:33:05;;;;;;;15.65;8.90;;;;;;;4.92;80.70;102255.22;4995506;28;20044;-91
2022/03/16 07:35:31;;;;;;;14.97;9.23;;;;;;;5.00;80.56;102258.84;4985395;28;20796;-91
2022/03/16 07:37:57;;;;;;;15.10;9.13;;;;;;;5.07;80.72;102252.09;4990898;28;20047;-91
2022/03/16 07:40:24;;;;;;;16.30;9.57;;;;;;;5.14;79.90;102243.63;4993924;28;20030;-90
2022/03/16 07:42:51;;;;;;;14.70;8.32;;;;;;;5.20;80.12;102246.34;4981302;28;20160;-91
2022/03/16 07:45:18;;;;;;;16.50;9.65;;;;;;;5.29;80.04;102243.06;4984214;28;20023;-91
2022/03/16 07:47:46;;;;;;;15.85;9.32;;;;;;;5.38;79.31;102242.38;4984303;28;20483;-90
2022/03/16 07:50:13;;;;;;;15.45;9.10;;;;;;;5.45;79.38;102241.66;4984828;28;20104;-91
2022/03/16 07:52:38;;;;;;;15.20;8.60;;;;;;;5.52;79.04;102243.50;4996332;28;20052;-92
2022/03/16 07:55:04;;;;;;;14.98;9.02;;;;;;;5.59;79.30;102234.13;4983841;28;20478;-90
2022/03/16 07:57:30;;;;;;;15.48;9.15;;;;;;;5.65;78.98;102242.00;4995126;28;20034;-91
2022/03/16 07:59:56;;;;;;;17.20;9.43;;;;;;;5.72;78.88;102248.13;4986614;28;20038;-91
2022/03/16 08:02:22;;;;;;;13.68;8.32;;;;;;;5.78;78.63;102246.53;4977931;28;20101;-91
2022/03/16 08:04:47;;;;;;;14.73;8.27;;;;;;;5.86;78.21;102246.66;4982468;28;20022;-91
2022/03/16 08:07:12;;;;;;;15.13;8.90;;;;;;;5.92;78.31;102235.53;4988126;28;20023;-92
2022/03/16 08:09:38;;;;;;;16.42;9.45;;;;;;;6.01;78.81;102234.84;4995660;28;20030;-92
2022/03/16 08:12:04;;;;;;;17.20;9.88;;;;;;;6.07;78.26;102237.53;4987899;28;20088;-92
2022/03/16 08:14:30;;;;;;;17.58;9.05;;;;;;;6.14;78.02;102231.66;4994671;28;20030;-91
2022/03/16 08:16:56;;;;;;;14.45;9.10;;;;;;;6.20;77.60;102239.47;4984049;28;20471;-92
2022/03/16 08:19:21;;;;;;;16.20;10.00;;;;;;;6.26;77.10;102241.28;4980801;28;20070;-91
2022/03/16 08:21:47;;;;;;;13.82;9.07;;;;;;;6.30;77.29;102250.81;4984883;28;20026;-91
2022/03/16 08:24:14;;;;;;;16.50;9.68;;;;;;;6.36;77.28;102247.44;4987574;28;20037;-92
2022/03/16 08:26:39;;;;;;;17.67;10.10;;;;;;;6.41;77.23;102250.97;4990083;28;20462;-91
2022/03/16 08:29:04;;;;;;;16.75;9.77;;;;;;;6.46;76.54;102249.34;5013877;28;20054;-91
2022/03/16 08:31:30;;;;;;;14.77;9.52;;;;;;;6.50;76.23;102251.09;4987807;28;20026;-91
2022/03/16 08:33:56;;;;;;;16.65;9.50;;;;;;;6.56;75.80;102257.22;4993549;28;20033;-91
2022/03/16 08:36:21;;;;;;;16.83;10.05;;;;;;;6.57;75.26;102257.25;4987058;28;20022;-90
2022/03/16 08:38:47;;;;;;;15.82;10.05;;;;;;;6.59;75.05;102247.75;4992622;28;20020;-92
2022/03/16 08:41:12;;;;;;;16.70;10.15;;;;;;;6.62;75.00;102249.53;4993753;28;20516;-91
2022/03/16 08:43:38;;;;;;;16.17;9.85;;;;;;;6.65;75.35;102244.41;4992786;28;20034;-91
2022/03/16 08:46:04;;;;;;;14.90;9.45;;;;;;;6.68;75.25;102239.25;4993586;28;20022;-91
2022/03/16 08:48:29;;;;;;;16.73;10.38;;;;;;;6.73;75.06;102237.63;4985386;28;20033;-91
2022/03/16 08:50:55;;;;;;;17.27;10.48;;;;;;;6.78;74.63;102235.97;4976475;28;20452;-91
2022/03/16 08:53:20;;;;;;;17.17;10.82;;;;;;;6.84;75.05;102242.94;4993275;28;20041;-90
2022/03/16 08:55:46;;;;;;;17.00;10.80;;;;;;;6.90;74.75;102239.53;4985074;28;20021;-91
2022/03/16 08:58:14;;;;;;;16.60;10.30;;;;;;;6.96;74.92;102247.38;4990983;28;20030;-91
2022/03/16 09:00:39;;;;;;;16.40;10.27;;;;;;;7.04;74.39;102243.16;4986109;28;20450;-91
2022/03/16 09:03:05;;;;;;;16.92;10.50;;;;;;;7.11;74.28;102234.63;4988912;28;20022;-89
2022/03/16 09:05:30;;;;;;;17.27;10.68;;;;;;;7.18;73.16;102239.84;4992283;28;20118;-89
2022/03/16 09:07:56;;;;;;;19.35;10.63;;;;;;;7.23;73.68;102243.38;4981785;28;20386;-90
2022/03/16 09:10:21;;;;;;;16.02;10.20;;;;;;;7.28;72.94;102247.72;4989629;28;20022;-89
2022/03/16 09:12:46;;;;;;;15.73;9.82;;;;;;;7.33;72.46;102245.22;4991870;28;20050;-89
2022/03/16 09:15:12;;;;;;;15.20;9.65;;;;;;;7.38;73.42;102238.34;4993197;28;20037;-93
2022/03/16 09:17:37;;;;;;;16.02;9.82;;;;;;;7.43;72.60;102247.03;4992083;28;20022;-91
2022/03/16 09:20:04;;;;;;;14.68;8.85;;;;;;;7.49;72.93;102242.78;4991752;28;20053;-93
2022/03/16 09:22:29;;;;;;;17.25;10.65;;;;;;;7.54;72.04;102238.50;4973232;28;20042;-93
2022/03/16 09:24:58;;;;;;;16.17;10.27;;;;;;;7.59;72.02;102231.66;4993327;28;20109;-92
2022/03/16 09:27:24;;;;;;;17.42;9.45;;;;;;;7.65;70.82;102226.53;4986414;28;20050;-93
2022/03/16 09:29:49;;;;;;;20.52;10.57;;;;;;;7.69;71.21;102233.44;4979266;28;20030;-92
2022/03/16 09:32:15;;;;;;;16.63;10.15;;;;;;;7.73;71.75;102224.84;4983415;28;20125;-92
2022/03/16 09:34:42;;;;;;;17.08;10.73;;;;;;;7.81;71.81;102226.66;4984781;28;20165;-93
2022/03/16 09:37:09;;;;;;;17.33;10.45;;;;;;;7.89;71.05;102232.75;4991526;28;20061;-92
2022/03/16 09:39:35;;;;;;;15.45;9.80;;;;;;;7.95;70.53;102227.63;4991825;28;20034;-92
2022/03/16 09:42:04;;;;;;;19.58;11.68;;;;;;;7.99;69.71;102220.75;4991935;28;20046;-91
2022/03/16 09:44:30;;;;;;;18.42;11.00;;;;;;;8.02;69.89;102226.84;4979631;28;20034;-92
2022/03/16 09:46:57;;;;;;;20.52;11.25;;;;;;;8.07;71.47;102219.09;4993568;28;20026;-91
2022/03/16 09:49:27;;;;;;;17.98;10.23;;;;;;;8.15;70.06;102217.41;5015636;28;20045;-93
2022/03/16 09:51:54;;;;;;;19.38;11.85;;;;;;;8.22;70.07;102228.66;4989110;28;20470;-91
2022/03/16 09:54:24;;;;;;;19.38;10.82;;;;;;;8.28;69.39;102222.69;4992752;28;20065;-92
2022/03/16 09:56:49;;;;;;;16.35;10.80;;;;;;;8.31;69.39;102223.56;4990110;28;20037;-92
2022/03/16 09:59:15;;;;;;;18.15;11.32;;;;;;;8.40;70.08;102232.22;4990775;28;20034;-93
2022/03/16 10:01:43;;;;;;;17.27;10.48;;;;;;;8.48;69.68;102220.22;4992369;28;20045;-92
2022/03/16 10:04:09;;;;;;;18.80;11.82;;;;;;;8.53;69.65;102228.91;4975792;28;20076;-92
2022/03/16 10:06:40;;;;;;;19.08;11.27;;;;;;;8.58;68.97;102227.19;4989305;28;20493;-93
2022/03/16 10:15:10;;;;;;;19.00;11.27;;;;;;;8.72;69.33;102211.69;4992880;28;20041;-93
2022/03/16 10:17:45;;;;;;;17.23;11.15;;;;;;;8.77;69.42;102214.28;4974626;28;20027;-93
2022/03/16 10:20:21;;;;;;;19.13;11.77;;;;;;;8.85;68.90;102219.50;4978221;28;20105;-92
2022/03/16 10:23:10;;;;;;;17.23;11.32;;;;;;;8.92;69.05;102206.56;4998747;28;20100;-92
2022/03/16 10:25:37;;;;;;;18.15;11.73;;;;;;;8.96;67.67;102205.72;4981133;28;20057;-91
2022/03/16 10:28:16;;;;;;;18.20;11.68;;;;;;;9.01;68.13;102210.06;4992001;28;20066;-91
2022/03/16 10:30:54;;;;;;;18.88;11.13;;;;;;;9.07;69.20;102208.34;4981527;28;20027;-91
2022/03/16 10:33:20;;;;;;;18.52;11.75;;;;;;;9.15;67.77;102218.75;4991152;28;20389;-91
2022/03/16 10:36:04;;;;;;;17.58;11.43;;;;;;;9.20;68.21;102217.03;4992146;28;20037;-91
2022/03/16 10:38:41;;;;;;;17.38;11.25;;;;;;;9.24;67.42;102208.38;4991928;28;20042;-91
2022/03/16 10:41:13;;;;;;;17.35;11.30;;;;;;;9.32;68.95;102208.38;4991697;28;20109;-91
2022/03/16 10:46:35;;;;;;;17.65;12.38;;;;;;;9.49;67.22;102204.94;4992127;28;20386;-89
2022/03/16 10:49:03;;;;;;;19.02;11.98;;;;;;;9.57;66.96;102200.63;4977473;28;20034;-90
2022/03/16 10:51:29;;;;;;;17.60;11.68;;;;;;;9.63;66.58;102202.34;4991828;28;20034;-90
2022/03/16 10:53:56;;;;;;;18.15;11.57;;;;;;;9.71;67.08;102198.03;4973933;28;20019;-90
2022/03/16 10:56:23;;;;;;;19.65;11.63;;;;;;;9.78;66.06;102197.16;4987487;28;20029;-92
2022/03/16 10:58:52;;;;;;;18.95;12.80;;;;;;;9.84;66.21;102197.16;4990050;28;20366;-92
2022/03/16 11:01:18;;;;;;;18.98;11.80;;;;;;;9.92;66.65;102191.94;4991747;28;20026;-90
2022/03/16 11:03:47;;;;;;;18.38;12.15;;;;;;;10.01;65.77;102181.53;4976009;28;20026;-91
2022/03/16 11:06:13;;;;;;;17.10;11.80;;;;;;;10.10;66.25;102170.22;4987231;28;20033;-92
2022/03/16 11:08:39;;;;;;;17.90;11.77;;;;;;;10.18;65.25;102173.69;4993774;28;20030;-91
2022/03/16 11:13:28;;;;;;;19.17;11.90;;;;;;;10.30;66.19;102174.53;4995754;28;20085;-90
2022/03/16 11:13:56;;;;;;;17.05;11.07;;;;;;;10.40;65.15;102184.06;4995878;28;20030;-95
2022/03/16 11:16:24;;;;;;;16.88;11.60;;;;;;;10.48;65.05;102182.28;4976199;28;20062;-93
2022/03/16 11:19:19;;;;;;;16.30;10.93;;;;;;;10.63;66.38;102173.56;4987301;28;20096;-96
2022/03/16 11:22:12;;;;;;;16.73;11.32;;;;;;;10.84;65.87;102173.47;4973877;28;20058;-94
2022/03/16 11:24:56;;;;;;;15.07;10.43;;;;;;;10.99;63.62;102175.13;4992075;28;20029;-93
2022/03/16 11:27:49;;;;;;;15.82;9.85;;;;;;;11.11;64.62;102176.75;4989236;28;20385;-93